Time;durP1;ratioP1;P1;durP2;ratioP2;P2;SDS_P1;SDS_P2;PMS_P1;PMS_P2;Temp;Humidity;BMP_temperature;BMP_pressure;BME280_temperature;BME280_humidity;BME280_pressure;Samples;Min_cycle;Max_cycle;Signal;HPM_P1;HPM_P2
2021/12/21 00:00:54;;;;;;;;;;;2.90;59.70;;;;;;5115130;28;19912;-68
2021/12/21 00:03:20;;;;;;;;;;;2.90;59.60;;;;;;5114881;28;20280;-67
2021/12/21 00:05:46;;;;;;;;;;;2.80;59.50;;;;;;5113560;28;19918;-67
2021/12/21 00:08:13;;;;;;;;;;;2.80;59.50;;;;;;5114744;28;19969;-67
2021/12/21 00:10:42;;;;;;;;;;;2.80;59.50;;;;;;5112269;28;19959;-68
2021/12/21 00:13:21;;;;;;;;;;;2.70;59.40;;;;;;5114750;28;20306;-67
2021/12/21 00:18:35;;;;;;;;;;;2.70;59.40;;;;;;5114800;28;19912;-67
2021/12/21 00:21:12;;;;;;;;;;;2.60;59.40;;;;;;5114573;28;19916;-68
2021/12/21 00:26:09;;;;;;;;;;;2.60;59.40;;;;;;5114444;28;19919;-68
2021/12/21 00:29:08;;;;;;;;;;;2.50;59.40;;;;;;5114511;28;19923;-67
2021/12/21 00:31:29;;;;;;;;;;;2.50;59.50;;;;;;5112351;28;19957;-67
2021/12/21 00:33:55;;;;;;;;;;;2.50;59.60;;;;;;5114478;28;20284;-67
2021/12/21 00:36:22;;;;;;;;;;;2.50;59.70;;;;;;5114311;28;19912;-67
2021/12/21 00:38:48;;;;;;;;;;;2.40;59.70;;;;;;5114354;28;19958;-67
2021/12/21 00:41:15;;;;;;;;;;;2.40;59.70;;;;;;5114536;28;19912;-68
2021/12/21 00:43:41;;;;;;;;;;;2.40;59.70;;;;;;5114160;28;19927;-67
2021/12/21 00:46:07;;;;;;;;;;;2.40;59.70;;;;;;5114222;28;19913;-68
2021/12/21 00:48:34;;;;;;;;;;;2.40;59.70;;;;;;5113871;27;19916;-67
2021/12/21 00:51:00;;;;;;;;;;;2.40;59.70;;;;;;5113982;28;20353;-68
2021/12/21 00:53:26;;;;;;;;;;;2.30;59.60;;;;;;5112476;28;20015;-67
2021/12/21 00:55:52;;;;;;;;;;;2.40;59.70;;;;;;5113922;28;20006;-67
2021/12/21 00:58:18;;;;;;;;;;;2.30;59.70;;;;;;5113987;28;19918;-67
2021/12/21 01:00:44;;;;;;;;;;;2.30;59.70;;;;;;5113520;28;19919;-66
2021/12/21 01:03:12;;;;;;;;;;;2.30;59.70;;;;;;5114023;28;20319;-66
2021/12/21 01:05:55;;;;;;;;;;;2.30;59.70;;;;;;5113764;28;19912;-67
2021/12/21 01:08:25;;;;;;;;;;;2.30;59.80;;;;;;5113925;28;19915;-67
2021/12/21 01:11:05;;;;;;;;;;;2.30;59.80;;;;;;5106860;28;20450;-67
2021/12/21 01:13:50;;;;;;;;;;;2.30;59.80;;;;;;5112366;28;19911;-67
2021/12/21 01:16:22;;;;;;;;;;;2.30;59.80;;;;;;5107878;28;20011;-67
2021/12/21 01:21:38;;;;;;;;;;;2.30;60.40;;;;;;5113707;28;19918;-67
2021/12/21 01:29:15;;;;;;;;;;;2.30;60.60;;;;;;5113480;28;19916;-67
2021/12/21 01:42:04;;;;;;;;;;;2.20;60.20;;;;;;5113014;28;19919;-67
2021/12/21 01:49:49;;;;;;;;;;;2.20;60.10;;;;;;5112841;28;19919;-66
2021/12/21 01:52:16;;;;;;;;;;;2.10;60.10;;;;;;5105072;28;19911;-67
2021/12/21 01:54:42;;;;;;;;;;;2.10;60.00;;;;;;5112978;28;19998;-67
2021/12/21 01:57:08;;;;;;;;;;;2.10;60.00;;;;;;5111162;28;20049;-66
2021/12/21 01:59:35;;;;;;;;;;;2.10;60.00;;;;;;5112739;28;19958;-67
2021/12/21 02:02:00;;;;;;;;;;;2.10;60.00;;;;;;5112489;28;20276;-67
2021/12/21 02:04:26;;;;;;;;;;;2.00;60.00;;;;;;5112628;28;19912;-67
2021/12/21 02:06:52;;;;;;;;;;;2.00;60.00;;;;;;5112469;28;19977;-67
2021/12/21 02:09:19;;;;;;;;;;;2.00;60.00;;;;;;5110755;28;19920;-67
2021/12/21 02:11:48;;;;;;;;;;;2.00;60.00;;;;;;5111196;28;20404;-67
2021/12/21 02:14:14;;;;;;;;;;;1.90;60.00;;;;;;5112328;28;19992;-68
2021/12/21 02:19:28;;;;;;;;;;;1.90;60.00;;;;;;5112211;28;19919;-67
2021/12/21 02:22:05;;;;;;;;;;;1.90;60.00;;;;;;5112855;28;19918;-68
2021/12/21 02:24:39;;;;;;;;;;;1.90;60.00;;;;;;5112144;28;19916;-67
2021/12/21 02:27:17;;;;;;;;;;;1.80;60.00;;;;;;5107744;28;19919;-67
2021/12/21 02:29:42;;;;;;;;;;;1.80;60.00;;;;;;5112207;28;19912;-67
2021/12/21 02:32:12;;;;;;;;;;;1.80;60.00;;;;;;5112074;28;19957;-67
2021/12/21 02:34:38;;;;;;;;;;;1.80;60.10;;;;;;5104515;28;19916;-67
2021/12/21 02:37:03;;;;;;;;;;;1.80;60.10;;;;;;5112250;28;19922;-67
2021/12/21 02:39:29;;;;;;;;;;;1.80;60.10;;;;;;5111995;28;19963;-67
2021/12/21 02:41:55;;;;;;;;;;;1.80;60.20;;;;;;5112255;28;19908;-67
2021/12/21 02:44:20;;;;;;;;;;;1.80;60.30;;;;;;5112086;28;20432;-68
2021/12/21 02:46:47;;;;;;;;;;;1.70;60.30;;;;;;5112086;28;20357;-67
2021/12/21 02:49:13;;;;;;;;;;;1.70;60.30;;;;;;5115830;28;20368;-68
2021/12/21 02:51:43;;;;;;;;;;;1.80;60.30;;;;;;5116255;28;19930;-67
2021/12/21 02:54:09;;;;;;;;;;;1.70;60.30;;;;;;5116302;28;19916;-67
2021/12/21 02:56:35;;;;;;;;;;;1.70;60.30;;;;;;5116101;28;19943;-67
2021/12/21 02:59:01;;;;;;;;;;;1.70;60.30;;;;;;5116221;28;19959;-68
2021/12/21 03:01:28;;;;;;;;;;;1.70;60.20;;;;;;5116045;28;19965;-67
2021/12/21 03:03:54;;;;;;;;;;;1.70;60.20;;;;;;5116083;28;19919;-67
2021/12/21 03:07:12;;;;;;;;;;;1.70;61.00;;;;;;5116123;28;20357;-67
2021/12/21 03:09:24;;;;;;;;;;;1.70;60.20;;;;;;5112104;28;19920;-67
2021/12/21 03:11:57;;;;;;;;;;;1.60;60.10;;;;;;5107859;28;19912;-67
2021/12/21 03:14:27;;;;;;;;;;;1.60;60.20;;;;;;5116034;28;19916;-67
2021/12/21 03:16:53;;;;;;;;;;;1.60;60.20;;;;;;5115833;28;20376;-68
2021/12/21 03:19:19;;;;;;;;;;;1.60;60.20;;;;;;5115793;28;20369;-67
2021/12/21 03:21:45;;;;;;;;;;;1.60;60.30;;;;;;5115559;28;19919;-67
2021/12/21 03:24:10;;;;;;;;;;;1.60;60.30;;;;;;5115821;28;19918;-67
2021/12/21 03:26:37;;;;;;;;;;;1.60;60.30;;;;;;5115753;28;19919;-67
2021/12/21 03:29:03;;;;;;;;;;;1.60;60.30;;;;;;5115547;28;19912;-67
2021/12/21 03:31:29;;;;;;;;;;;1.60;60.30;;;;;;5115590;28;19918;-67
2021/12/21 03:33:55;;;;;;;;;;;1.50;60.30;;;;;;5112284;28;19915;-67
2021/12/21 03:36:20;;;;;;;;;;;1.50;60.30;;;;;;5114209;28;19991;-67
2021/12/21 03:38:54;;;;;;;;;;;1.50;60.40;;;;;;5115166;28;19919;-67
2021/12/21 03:41:20;;;;;;;;;;;1.50;60.40;;;;;;5115520;28;19970;-67
2021/12/21 03:43:46;;;;;;;;;;;1.50;60.40;;;;;;5115099;28;19942;-67
2021/12/21 03:46:14;;;;;;;;;;;1.50;60.50;;;;;;5115382;28;19912;-67
2021/12/21 03:48:42;;;;;;;;;;;1.50;60.50;;;;;;5111046;28;19969;-67
2021/12/21 03:51:08;;;;;;;;;;;1.50;60.50;;;;;;5107308;28;19916;-67
2021/12/21 03:53:34;;;;;;;;;;;1.50;60.40;;;;;;5115070;28;19912;-67
2021/12/21 03:56:17;;;;;;;;;;;1.50;60.40;;;;;;5114850;28;20002;-67
2021/12/21 03:58:42;;;;;;;;;;;1.50;60.50;;;;;;5114096;28;19934;-67
2021/12/21 04:01:08;;;;;;;;;;;1.50;60.50;;;;;;5114338;28;19916;-67
2021/12/21 04:03:34;;;;;;;;;;;1.50;60.50;;;;;;5114845;28;19926;-67
2021/12/21 04:05:59;;;;;;;;;;;1.40;60.40;;;;;;5114587;28;19911;-67
2021/12/21 04:08:25;;;;;;;;;;;1.40;60.50;;;;;;5114538;28;20296;-67
2021/12/21 04:10:50;;;;;;;;;;;1.40;60.50;;;;;;5112619;28;20006;-68
2021/12/21 04:13:16;;;;;;;;;;;1.40;60.50;;;;;;5114691;28;19954;-67
2021/12/21 04:15:43;;;;;;;;;;;1.40;60.50;;;;;;5114350;28;20399;-67
2021/12/21 04:18:12;;;;;;;;;;;1.40;60.60;;;;;;5114327;28;19916;-66
2021/12/21 04:20:39;;;;;;;;;;;1.40;60.60;;;;;;5113132;28;19960;-67
2021/12/21 04:23:04;;;;;;;;;;;1.40;60.60;;;;;;5114200;28;19919;-66
2021/12/21 04:25:30;;;;;;;;;;;1.40;60.60;;;;;;5114661;28;19920;-67
2021/12/21 04:27:56;;;;;;;;;;;1.40;60.60;;;;;;5114008;28;19927;-67
2021/12/21 04:30:22;;;;;;;;;;;1.40;60.60;;;;;;5114151;28;19951;-67
2021/12/21 04:32:47;;;;;;;;;;;1.40;60.60;;;;;;5112919;28;19915;-67
2021/12/21 04:35:18;;;;;;;;;;;1.40;60.60;;;;;;5114011;28;20010;-67
2021/12/21 04:37:48;;;;;;;;;;;1.40;60.70;;;;;;5114086;28;19908;-67
2021/12/21 04:40:17;;;;;;;;;;;1.40;60.60;;;;;;5113802;28;19926;-67
2021/12/21 04:42:43;;;;;;;;;;;1.40;60.70;;;;;;5114081;28;19908;-67
2021/12/21 04:45:09;;;;;;;;;;;1.40;60.60;;;;;;5113856;28;19956;-67
2021/12/21 04:47:34;;;;;;;;;;;1.40;60.60;;;;;;5113861;28;19916;-67
2021/12/21 04:50:00;;;;;;;;;;;1.40;60.70;;;;;;5113933;28;19911;-67
2021/12/21 04:52:25;;;;;;;;;;;1.30;60.70;;;;;;5113616;28;20295;-67
2021/12/21 04:54:51;;;;;;;;;;;1.40;60.70;;;;;;5113678;28;19916;-67
2021/12/21 04:57:16;;;;;;;;;;;1.30;60.60;;;;;;5113522;28;19955;-67
2021/12/21 04:59:42;;;;;;;;;;;1.30;60.60;;;;;;5113757;28;19965;-67
2021/12/21 05:02:08;;;;;;;;;;;1.30;60.60;;;;;;5113413;28;19923;-67
2021/12/21 05:04:35;;;;;;;;;;;1.30;60.60;;;;;;5113248;28;19912;-67
2021/12/21 05:07:00;;;;;;;;;;;1.30;60.70;;;;;;5113191;28;20373;-68
2021/12/21 05:09:29;;;;;;;;;;;1.30;60.60;;;;;;5107389;28;19923;-66
2021/12/21 05:12:01;;;;;;;;;;;1.30;60.60;;;;;;5113201;28;20296;-66
2021/12/21 05:14:28;;;;;;;;;;;1.30;60.60;;;;;;5111947;28;19911;-67
2021/12/21 05:16:53;;;;;;;;;;;1.30;60.60;;;;;;5113526;28;19915;-66
2021/12/21 05:19:19;;;;;;;;;;;1.30;60.60;;;;;;5113293;28;19912;-67
2021/12/21 05:21:45;;;;;;;;;;;1.30;60.60;;;;;;5112946;28;20311;-67
2021/12/21 05:24:10;;;;;;;;;;;1.30;60.60;;;;;;5113102;28;20020;-67
2021/12/21 05:26:37;;;;;;;;;;;1.30;60.60;;;;;;5112793;28;19912;-66
2021/12/21 05:29:03;;;;;;;;;;;1.20;61.30;;;;;;5112845;28;19955;-66
2021/12/21 05:31:29;;;;;;;;;;;1.20;60.50;;;;;;5111796;28;19998;-66
2021/12/21 05:33:54;;;;;;;;;;;1.20;60.50;;;;;;5112714;28;20002;-66
2021/12/21 05:36:20;;;;;;;;;;;1.20;60.50;;;;;;5112914;28;19912;-66
2021/12/21 05:38:50;;;;;;;;;;;1.20;60.50;;;;;;5112657;28;20292;-66
2021/12/21 05:41:24;;;;;;;;;;;1.20;60.50;;;;;;5112847;28;19911;-67
2021/12/21 05:43:50;;;;;;;;;;;1.20;60.60;;;;;;5112692;28;20389;-66
2021/12/21 05:46:15;;;;;;;;;;;1.20;60.60;;;;;;5112652;28;19912;-66
2021/12/21 05:48:41;;;;;;;;;;;1.20;60.50;;;;;;5112637;28;19950;-68
2021/12/21 05:51:07;;;;;;;;;;;1.20;60.60;;;;;;5112442;28;19972;-67
2021/12/21 05:53:32;;;;;;;;;;;1.20;60.60;;;;;;5112416;28;20289;-67
2021/12/21 05:55:58;;;;;;;;;;;1.20;60.60;;;;;;5112356;28;19915;-67
2021/12/21 05:58:24;;;;;;;;;;;1.20;60.60;;;;;;5112317;28;19919;-67
2021/12/21 06:00:49;;;;;;;;;;;1.20;61.40;;;;;;5112542;28;20377;-67
2021/12/21 06:03:15;;;;;;;;;;;1.20;60.70;;;;;;5112208;28;19919;-67
2021/12/21 06:05:41;;;;;;;;;;;1.20;60.70;;;;;;5112526;28;19922;-66
2021/12/21 06:08:06;;;;;;;;;;;1.20;60.70;;;;;;5111901;28;20297;-67
2021/12/21 06:10:37;;;;;;;;;;;1.20;60.60;;;;;;5110630;28;19911;-66
2021/12/21 06:26:38;;;;;;;;;;;1.10;60.40;;;;;;5112561;28;19965;-67
2021/12/21 06:29:04;;;;;;;;;;;1.10;60.40;;;;;;5110246;28;19916;-66
2021/12/21 06:31:30;;;;;;;;;;;1.10;60.50;;;;;;5111733;28;19927;-67
2021/12/21 06:33:56;;;;;;;;;;;1.10;60.50;;;;;;5111915;28;19912;-66
2021/12/21 06:36:22;;;;;;;;;;;1.10;60.40;;;;;;5112433;28;19916;-67
2021/12/21 06:38:47;;;;;;;;;;;1.10;60.30;;;;;;5112954;28;19912;-66
2021/12/21 06:41:13;;;;;;;;;;;1.10;60.20;;;;;;5113035;28;20003;-67
2021/12/21 06:43:39;;;;;;;;;;;1.10;60.20;;;;;;5112737;28;20404;-67
2021/12/21 06:51:45;;;;;;;;;;;1.00;60.20;;;;;;5112612;28;19956;-67
2021/12/21 06:54:11;;;;;;;;;;;1.00;60.20;;;;;;5113223;28;19915;-67
2021/12/21 06:56:36;;;;;;;;;;;1.00;60.20;;;;;;5113154;28;19908;-66
2021/12/21 06:59:02;;;;;;;;;;;1.10;60.30;;;;;;5113357;28;19914;-67
2021/12/21 07:01:28;;;;;;;;;;;1.10;61.10;;;;;;5113415;28;19908;-67
2021/12/21 07:03:54;;;;;;;;;;;1.00;60.30;;;;;;5113557;28;19915;-67
2021/12/21 07:06:20;;;;;;;;;;;1.10;60.40;;;;;;5111094;28;19916;-67
2021/12/21 07:08:52;;;;;;;;;;;1.10;60.40;;;;;;5112914;28;20352;-67
2021/12/21 07:19:27;;;;;;;;;;;1.10;60.50;;;;;;5113415;28;20492;-66
2021/12/21 07:21:53;;;;;;;;;;;1.10;60.60;;;;;;5112594;28;19924;-67
2021/12/21 07:24:19;;;;;;;;;;;1.10;60.60;;;;;;5113016;28;20045;-67
2021/12/21 07:26:44;;;;;;;;;;;1.20;60.80;;;;;;5112711;28;20361;-67
2021/12/21 07:29:10;;;;;;;;;;;1.20;60.80;;;;;;5110509;28;19916;-67
2021/12/21 07:31:36;;;;;;;;;;;1.20;60.80;;;;;;5112870;28;19908;-67
2021/12/21 07:34:02;;;;;;;;;;;1.30;60.90;;;;;;5112906;28;20061;-67
2021/12/21 07:36:32;;;;;;;;;;;1.30;60.90;;;;;;5116710;28;19915;-67
2021/12/21 07:38:59;;;;;;;;;;;1.40;61.10;;;;;;5116994;28;19992;-67
2021/12/21 07:41:24;;;;;;;;;;;1.40;61.10;;;;;;5114426;28;19911;-67
2021/12/21 07:43:50;;;;;;;;;;;1.50;61.20;;;;;;5115907;28;19918;-68
2021/12/21 07:46:16;;;;;;;;;;;1.60;61.30;;;;;;5116511;28;20349;-67
2021/12/21 07:48:42;;;;;;;;;;;1.60;61.20;;;;;;5116492;28;19912;-67
2021/12/21 07:51:08;;;;;;;;;;;1.70;61.30;;;;;;5116483;28;19908;-68
2021/12/21 07:53:34;;;;;;;;;;;1.70;61.30;;;;;;5116127;28;19976;-67
2021/12/21 07:56:02;;;;;;;;;;;1.80;61.30;;;;;;5114189;28;19949;-67
2021/12/21 07:58:31;;;;;;;;;;;1.90;61.30;;;;;;5114810;28;19916;-67
2021/12/21 08:00:58;;;;;;;;;;;2.00;61.40;;;;;;5116202;28;19908;-67
2021/12/21 08:03:24;;;;;;;;;;;2.00;61.40;;;;;;5114796;28;19908;-67
2021/12/21 08:05:52;;;;;;;;;;;2.10;61.40;;;;;;5111811;28;19969;-67
2021/12/21 08:08:21;;;;;;;;;;;2.20;61.50;;;;;;5103844;28;20412;-67
2021/12/21 08:11:09;;;;;;;;;;;2.30;61.50;;;;;;5114529;28;19912;-68
2021/12/21 08:13:33;;;;;;;;;;;2.40;61.50;;;;;;5114583;27;19930;-67
2021/12/21 08:15:58;;;;;;;;;;;2.50;61.50;;;;;;5114143;28;19924;-68
2021/12/21 08:18:24;;;;;;;;;;;2.50;61.50;;;;;;5112881;28;20031;-67
2021/12/21 08:20:49;;;;;;;;;;;2.60;61.60;;;;;;5114256;28;20280;-67
2021/12/21 08:23:15;;;;;;;;;;;2.70;61.50;;;;;;5114214;28;19912;-67
2021/12/21 08:25:41;;;;;;;;;;;2.80;61.50;;;;;;5109977;28;19944;-67
2021/12/21 08:28:06;;;;;;;;;;;2.90;61.40;;;;;;5111337;28;20364;-67
2021/12/21 08:30:32;;;;;;;;;;;3.00;61.40;;;;;;5114165;27;19916;-68
2021/12/21 08:32:58;;;;;;;;;;;3.10;61.40;;;;;;5114283;28;19963;-68
2021/12/21 08:35:24;;;;;;;;;;;3.10;61.30;;;;;;5113920;28;20321;-67
2021/12/21 08:38:00;;;;;;;;;;;3.30;61.20;;;;;;5114128;27;19918;-67
2021/12/21 08:40:25;;;;;;;;;;;3.40;61.20;;;;;;5113877;28;20288;-67
2021/12/21 08:42:52;;;;;;;;;;;3.50;61.20;;;;;;5113935;28;19918;-67
2021/12/21 08:45:18;;;;;;;;;;;3.60;61.10;;;;;;5111589;28;20287;-68
2021/12/21 08:47:44;;;;;;;;;;;3.70;60.90;;;;;;5113708;28;19922;-67
2021/12/21 08:50:10;;;;;;;;;;;3.70;60.80;;;;;;5113856;28;19911;-67
2021/12/21 08:52:36;;;;;;;;;;;3.90;60.80;;;;;;5113614;28;19911;-68
2021/12/21 08:55:04;;;;;;;;;;;4.00;60.70;;;;;;5113841;28;20280;-68
2021/12/21 08:57:29;;;;;;;;;;;4.00;60.40;;;;;;5112343;28;19922;-68
2021/12/21 08:59:55;;;;;;;;;;;4.10;60.20;;;;;;5112254;28;19912;-68
2021/12/21 09:02:21;;;;;;;;;;;4.20;60.00;;;;;;5113246;28;20351;-67
2021/12/21 09:04:46;;;;;;;;;;;4.30;59.90;;;;;;5104741;28;19973;-68
2021/12/21 09:07:12;;;;;;;;;;;4.40;59.80;;;;;;5107376;28;20280;-68
2021/12/21 09:09:37;;;;;;;;;;;4.50;59.60;;;;;;5113387;28;20022;-68
2021/12/21 09:12:03;;;;;;;;;;;4.50;59.40;;;;;;5113487;28;19919;-67
2021/12/21 09:14:32;;;;;;;;;;;4.60;59.30;;;;;;5113172;28;19911;-68
2021/12/21 09:16:58;;;;;;;;;;;4.70;59.20;;;;;;5113413;28;20336;-69
2021/12/21 09:19:23;;;;;;;;;;;4.70;59.10;;;;;;5112921;28;19934;-68
2021/12/21 09:21:49;;;;;;;;;;;4.80;59.00;;;;;;5113231;28;20002;-68
2021/12/21 09:24:14;;;;;;;;;;;4.90;58.90;;;;;;5106496;28;19997;-68
2021/12/21 09:26:40;;;;;;;;;;;5.00;58.80;;;;;;5110276;28;20346;-68
2021/12/21 09:29:06;;;;;;;;;;;5.10;58.50;;;;;;5112682;28;19922;-69
2021/12/21 09:31:31;;;;;;;;;;;5.10;58.20;;;;;;5109697;28;19950;-68
2021/12/21 09:33:57;;;;;;;;;;;5.20;58.00;;;;;;5113245;28;20353;-68
2021/12/21 09:36:25;;;;;;;;;;;5.20;57.90;;;;;;5113607;28;19915;-68
2021/12/21 09:38:50;;;;;;;;;;;5.30;57.80;;;;;;5113770;28;19946;-68
2021/12/21 09:41:18;;;;;;;;;;;5.40;57.70;;;;;;5111023;28;19947;-69
2021/12/21 09:43:44;;;;;;;;;;;5.40;57.60;;;;;;5113564;28;19918;-70
2021/12/21 09:46:09;;;;;;;;;;;5.50;57.50;;;;;;5114024;28;20003;-66
2021/12/21 09:48:36;;;;;;;;;;;5.50;57.20;;;;;;5113576;28;19923;-66
2021/12/21 09:51:02;;;;;;;;;;;5.60;57.20;;;;;;5113582;28;19912;-66
2021/12/21 09:53:29;;;;;;;;;;;5.60;57.20;;;;;;5112959;27;20443;-66
2021/12/21 09:55:55;;;;;;;;;;;5.70;57.00;;;;;;5113249;28;19919;-65
2021/12/21 09:58:20;;;;;;;;;;;5.70;57.00;;;;;;5112636;28;20361;-65
2021/12/21 10:00:46;;;;;;;;;;;5.80;56.90;;;;;;5112988;28;19919;-65
2021/12/21 10:03:12;;;;;;;;;;;5.80;56.90;;;;;;5113308;28;19911;-65
2021/12/21 10:05:39;;;;;;;;;;;5.90;56.90;;;;;;5113447;28;19912;-65
2021/12/21 10:08:05;;;;;;;;;;;5.90;56.80;;;;;;5113226;28;20272;-65
2021/12/21 10:10:32;;;;;;;;;;;6.00;56.70;;;;;;5113384;28;19940;-66
2021/12/21 10:13:05;;;;;;;;;;;6.10;56.60;;;;;;5112958;28;19915;-65
2021/12/21 10:15:36;;;;;;;;;;;6.10;56.50;;;;;;5110791;28;19920;-66
2021/12/21 10:18:02;;;;;;;;;;;6.20;56.90;;;;;;5113366;28;20429;-65
2021/12/21 10:20:32;;;;;;;;;;;6.40;57.10;;;;;;5112743;28;20007;-65
2021/12/21 10:22:58;;;;;;;;;;;6.60;57.00;;;;;;5113156;28;19951;-66
2021/12/21 10:25:25;;;;;;;;;;;6.80;56.20;;;;;;5111514;28;19971;-65
2021/12/21 10:27:50;;;;;;;;;;;6.90;55.20;;;;;;5112582;28;19930;-65
2021/12/21 10:30:16;;;;;;;;;;;6.90;54.90;;;;;;5103095;28;19911;-65
2021/12/21 10:32:52;;;;;;;;;;;7.00;54.90;;;;;;5112146;28;20097;-65
2021/12/21 10:35:18;;;;;;;;;;;7.00;54.70;;;;;;5111171;28;19912;-66
2021/12/21 10:37:44;;;;;;;;;;;7.00;54.40;;;;;;5112477;28;19911;-66
2021/12/21 10:40:13;;;;;;;;;;;7.00;54.20;;;;;;5112939;28;19919;-65
2021/12/21 10:42:44;;;;;;;;;;;7.00;54.00;;;;;;5112830;28;19944;-66
2021/12/21 10:45:10;;;;;;;;;;;7.00;53.80;;;;;;5113222;28;19912;-65
2021/12/21 10:47:36;;;;;;;;;;;7.10;53.50;;;;;;5112909;28;19916;-65
2021/12/21 10:50:03;;;;;;;;;;;7.10;53.70;;;;;;5112888;28;19911;-66
2021/12/21 10:52:31;;;;;;;;;;;7.10;53.40;;;;;;5113080;28;19911;-65
2021/12/21 10:54:57;;;;;;;;;;;7.10;53.40;;;;;;5112653;28;20436;-66
2021/12/21 10:57:31;;;;;;;;;;;7.10;53.30;;;;;;5113028;28;20045;-65
2021/12/21 10:59:57;;;;;;;;;;;7.10;53.00;;;;;;5112906;28;19912;-66
2021/12/21 11:02:27;;;;;;;;;;;7.10;52.50;;;;;;5111737;28;19912;-65
2021/12/21 11:04:57;;;;;;;;;;;7.10;52.10;;;;;;5111855;28;19912;-65
2021/12/21 11:09:56;;;;;;;;;;;7.10;51.90;;;;;;5116189;28;19919;-65
2021/12/21 11:12:24;;;;;;;;;;;7.10;51.90;;;;;;5096837;28;19912;-66
2021/12/21 11:14:50;;;;;;;;;;;7.10;51.90;;;;;;5096516;28;20388;-66
2021/12/21 11:17:16;;;;;;;;;;;7.10;51.90;;;;;;5096777;28;19912;-65
2021/12/21 11:19:42;;;;;;;;;;;7.10;51.90;;;;;;5096721;28;19905;-65
2021/12/21 11:22:08;;;;;;;;;;;7.20;51.90;;;;;;5106686;28;19973;-65
2021/12/21 11:24:36;;;;;;;;;;;7.20;51.90;;;;;;5117070;28;19908;-65
2021/12/21 11:27:03;;;;;;;;;;;7.20;51.90;;;;;;5116774;28;19915;-65
2021/12/21 11:29:30;;;;;;;;;;;7.30;51.80;;;;;;5116865;28;19908;-65
2021/12/21 11:31:56;;;;;;;;;;;7.30;51.80;;;;;;5116798;28;19911;-65
2021/12/21 11:34:31;;;;;;;;;;;7.30;51.50;;;;;;5116393;28;19947;-66
2021/12/21 11:39:45;;;;;;;;;;;7.40;51.50;;;;;;5116331;28;19918;-66
2021/12/21 11:42:17;;;;;;;;;;;7.40;51.60;;;;;;5116456;28;20365;-66
2021/12/21 11:44:58;;;;;;;;;;;7.50;51.60;;;;;;5116646;28;19908;-65
2021/12/21 11:47:44;;;;;;;;;;;7.50;51.40;;;;;;5116449;28;19961;-66
2021/12/21 11:50:10;;;;;;;;;;;7.50;51.30;;;;;;5114954;28;19957;-66
2021/12/21 11:52:47;;;;;;;;;;;7.50;51.00;;;;;;5116445;27;19908;-66
2021/12/21 11:55:13;;;;;;;;;;;7.50;51.00;;;;;;5116695;28;19908;-65
2021/12/21 11:57:47;;;;;;;;;;;7.50;50.60;;;;;;5116437;28;19914;-66
2021/12/21 12:00:14;;;;;;;;;;;7.50;50.50;;;;;;5115003;28;20365;-65
2021/12/21 12:02:41;;;;;;;;;;;7.50;50.50;;;;;;5116342;28;19911;-66
2021/12/21 12:05:21;;;;;;;;;;;7.50;50.50;;;;;;5114843;28;20225;-65
2021/12/21 12:07:58;;;;;;;;;;;7.50;50.40;;;;;;5116303;27;19995;-65
2021/12/21 12:10:24;;;;;;;;;;;7.50;50.30;;;;;;5116059;28;20369;-66
2021/12/21 12:12:50;;;;;;;;;;;7.50;50.30;;;;;;5116208;28;19907;-66
2021/12/21 12:15:16;;;;;;;;;;;7.50;50.40;;;;;;5115648;28;19927;-66
2021/12/21 12:17:49;;;;;;;;;;;7.50;50.30;;;;;;5115954;28;20003;-66
2021/12/21 12:20:16;;;;;;;;;;;7.60;50.20;;;;;;5114514;28;20349;-65
2021/12/21 12:22:45;;;;;;;;;;;7.60;49.70;;;;;;5115438;28;20193;-65
2021/12/21 12:25:29;;;;;;;;;;;7.50;49.60;;;;;;5114507;28;19908;-65
2021/12/21 12:27:54;;;;;;;;;;;7.50;49.60;;;;;;5115867;28;19965;-65
2021/12/21 12:30:21;;;;;;;;;;;7.50;49.90;;;;;;5115714;28;19908;-65
2021/12/21 12:32:49;;;;;;;;;;;7.50;49.40;;;;;;5115549;28;20242;-66
2021/12/21 12:35:16;;;;;;;;;;;7.50;49.50;;;;;;5115828;28;19957;-65
2021/12/21 12:37:52;;;;;;;;;;;7.50;49.50;;;;;;5115614;28;19904;-66
2021/12/21 12:40:19;;;;;;;;;;;7.50;49.20;;;;;;5115542;28;19908;-65
2021/12/21 12:42:58;;;;;;;;;;;7.50;49.20;;;;;;5115464;28;19947;-65
2021/12/21 12:45:32;;;;;;;;;;;7.50;49.10;;;;;;5115402;28;19908;-66
2021/12/21 12:47:58;;;;;;;;;;;7.50;49.20;;;;;;5115184;27;20368;-66
2021/12/21 12:50:25;;;;;;;;;;;7.50;49.40;;;;;;5115261;28;19915;-66
2021/12/21 12:53:02;;;;;;;;;;;7.50;49.40;;;;;;5115319;28;20277;-65
2021/12/21 12:55:40;;;;;;;;;;;7.50;49.40;;;;;;5115306;28;19907;-65
2021/12/21 12:58:11;;;;;;;;;;;7.50;49.10;;;;;;5115085;28;19911;-65
2021/12/21 13:00:37;;;;;;;;;;;7.50;49.80;;;;;;5114992;28;20002;-65
2021/12/21 13:03:06;;;;;;;;;;;7.50;49.20;;;;;;5114988;28;19904;-65
2021/12/21 13:05:37;;;;;;;;;;;7.50;48.80;;;;;;5114996;28;19914;-65
2021/12/21 13:08:15;;;;;;;;;;;7.50;48.80;;;;;;5114889;28;19912;-65
2021/12/21 13:10:43;;;;;;;;;;;7.50;48.70;;;;;;5115024;28;19991;-65
2021/12/21 13:13:09;;;;;;;;;;;7.50;48.90;;;;;;5113629;28;19904;-64
2021/12/21 13:15:38;;;;;;;;;;;7.50;48.60;;;;;;5114504;28;20422;-65
2021/12/21 13:18:05;;;;;;;;;;;7.50;48.30;;;;;;5114722;28;19912;-65
2021/12/21 13:20:31;;;;;;;;;;;7.50;48.30;;;;;;5114688;28;20376;-65
2021/12/21 13:23:07;;;;;;;;;;;7.40;48.30;;;;;;5114754;28;19973;-65
2021/12/21 13:25:33;;;;;;;;;;;7.40;48.30;;;;;;5114727;28;19908;-65
2021/12/21 13:28:07;;;;;;;;;;;7.50;48.20;;;;;;5114392;28;19922;-65
2021/12/21 13:30:34;;;;;;;;;;;7.50;48.40;;;;;;5114599;28;19934;-65
2021/12/21 13:33:00;;;;;;;;;;;7.40;48.50;;;;;;5114352;28;19904;-66
2021/12/21 13:35:28;;;;;;;;;;;7.40;48.40;;;;;;5114323;28;19998;-65
2021/12/21 13:37:53;;;;;;;;;;;7.40;48.50;;;;;;5114509;28;19911;-64
2021/12/21 13:40:19;;;;;;;;;;;7.40;48.30;;;;;;5113976;28;19908;-63
2021/12/21 13:42:44;;;;;;;;;;;7.40;48.30;;;;;;5114302;28;19904;-64
2021/12/21 13:45:10;;;;;;;;;;;7.40;48.40;;;;;;5114264;28;20219;-64
2021/12/21 13:47:41;;;;;;;;;;;7.40;48.40;;;;;;5114145;28;19912;-64
2021/12/21 13:50:11;;;;;;;;;;;7.40;48.50;;;;;;5114287;28;19915;-64
2021/12/21 13:52:42;;;;;;;;;;;7.40;48.40;;;;;;5114007;27;19908;-64
2021/12/21 13:55:18;;;;;;;;;;;7.30;48.30;;;;;;5114139;28;19958;-64
2021/12/21 13:57:46;;;;;;;;;;;7.30;48.30;;;;;;5114128;28;19915;-64
2021/12/21 14:00:12;;;;;;;;;;;7.30;48.20;;;;;;5113919;28;19998;-64
2021/12/21 14:02:42;;;;;;;;;;;7.30;48.10;;;;;;5113797;28;19992;-64
2021/12/21 14:05:08;;;;;;;;;;;7.20;48.00;;;;;;5113958;28;20232;-64
2021/12/21 14:07:38;;;;;;;;;;;7.20;48.10;;;;;;5113942;28;19912;-65
2021/12/21 14:10:07;;;;;;;;;;;7.20;48.10;;;;;;5113913;28;19908;-65
2021/12/21 14:12:33;;;;;;;;;;;7.20;48.10;;;;;;5113838;28;19907;-65
2021/12/21 14:14:58;;;;;;;;;;;7.10;48.10;;;;;;5113385;28;20367;-64
2021/12/21 14:17:28;;;;;;;;;;;7.10;48.20;;;;;;5112334;28;19965;-65
2021/12/21 14:19:55;;;;;;;;;;;7.10;48.20;;;;;;5113488;28;19999;-64
2021/12/21 14:22:21;;;;;;;;;;;7.00;48.20;;;;;;5113531;28;20249;-64
2021/12/21 14:24:48;;;;;;;;;;;7.00;48.30;;;;;;5113620;28;19991;-64
2021/12/21 14:27:14;;;;;;;;;;;6.90;48.30;;;;;;5113448;28;19907;-64
2021/12/21 14:29:42;;;;;;;;;;;6.90;48.30;;;;;;5113264;28;20357;-64
2021/12/21 14:34:37;;;;;;;;;;;6.80;48.30;;;;;;5113535;28;19930;-64
2021/12/21 14:37:05;;;;;;;;;;;6.80;48.40;;;;;;5113290;28;19914;-64
2021/12/21 14:39:31;;;;;;;;;;;6.70;48.50;;;;;;5113305;28;19950;-65
2021/12/21 14:41:59;;;;;;;;;;;6.70;48.50;;;;;;5112932;28;19908;-64
2021/12/21 14:44:25;;;;;;;;;;;6.60;48.60;;;;;;5112742;28;19951;-64
2021/12/21 14:46:51;;;;;;;;;;;6.60;48.60;;;;;;5113385;28;19957;-65
2021/12/21 14:49:22;;;;;;;;;;;6.60;48.70;;;;;;5113244;28;20344;-65
2021/12/21 14:51:50;;;;;;;;;;;6.50;48.70;;;;;;5113020;28;19908;-63
2021/12/21 14:54:23;;;;;;;;;;;6.50;48.80;;;;;;5113068;28;19931;-65
2021/12/21 14:56:49;;;;;;;;;;;6.50;48.90;;;;;;5113280;28;20395;-65
2021/12/21 14:59:15;;;;;;;;;;;6.40;48.90;;;;;;5113188;28;19908;-65
2021/12/21 15:01:54;;;;;;;;;;;6.30;48.90;;;;;;5113210;28;19915;-66
2021/12/21 15:04:24;;;;;;;;;;;6.30;49.00;;;;;;5112422;28;19908;-66
2021/12/21 15:06:50;;;;;;;;;;;6.30;49.10;;;;;;5113666;28;19998;-65
2021/12/21 15:09:16;;;;;;;;;;;6.30;49.10;;;;;;5111457;28;20010;-65
2021/12/21 15:11:43;;;;;;;;;;;6.20;49.10;;;;;;5108895;28;19908;-64
2021/12/21 15:14:08;;;;;;;;;;;6.20;49.10;;;;;;5112968;28;19911;-63
2021/12/21 15:16:34;;;;;;;;;;;6.20;49.20;;;;;;5102417;28;20407;-63
2021/12/21 15:18:59;;;;;;;;;;;6.10;49.10;;;;;;5112071;28;19965;-64
2021/12/21 15:21:25;;;;;;;;;;;6.00;49.10;;;;;;5112499;28;20408;-64
2021/12/21 15:23:53;;;;;;;;;;;6.00;49.10;;;;;;5110800;28;19919;-64
2021/12/21 15:26:19;;;;;;;;;;;6.00;49.20;;;;;;5111588;28;19918;-64
2021/12/21 15:28:45;;;;;;;;;;;5.90;49.20;;;;;;5112755;28;19912;-65
2021/12/21 15:31:11;;;;;;;;;;;5.90;49.20;;;;;;5112751;28;20426;-64
2021/12/21 15:33:36;;;;;;;;;;;5.80;49.20;;;;;;5112861;28;19991;-64
2021/12/21 15:36:02;;;;;;;;;;;5.70;49.20;;;;;;5112876;28;20372;-64
2021/12/21 15:38:27;;;;;;;;;;;5.70;49.20;;;;;;5112845;28;19904;-65
2021/12/21 15:40:53;;;;;;;;;;;5.60;49.20;;;;;;5110281;28;19924;-65